createdAt,value
2022-08-07T00:00:18.574Z,18.43
2022-08-07T00:02:35.523Z,18.38
2022-08-07T00:02:45.807Z,18.43
2022-08-07T00:03:49.013Z,18.56
2022-08-07T00:04:51.878Z,18.61
2022-08-07T00:05:55.246Z,18.67
2022-08-07T00:07:01.443Z,18.73
2022-08-07T00:08:12.667Z,18.65
2022-08-07T00:09:22.732Z,18.75
2022-08-07T00:10:29.719Z,18.87
2022-08-07T00:11:33.591Z,18.80
2022-08-07T00:12:57.813Z,18.80
2022-08-07T00:13:59.460Z,18.75
2022-08-07T00:15:02.436Z,18.72
2022-08-07T00:16:06.949Z,18.72
2022-08-07T00:17:10.656Z,18.68
2022-08-07T00:18:24.493Z,18.60
2022-08-07T00:20:00.295Z,18.60
2022-08-07T00:20:57.524Z,18.52
2022-08-07T00:22:04.526Z,18.45
2022-08-07T00:23:08.156Z,18.56
2022-08-07T00:24:12.078Z,18.57
2022-08-07T00:25:17.346Z,18.55
2022-08-07T00:26:49.045Z,18.63
2022-08-07T00:27:52.341Z,18.60
2022-08-07T00:29:00.336Z,18.71
2022-08-07T00:30:06.240Z,18.62
2022-08-07T00:31:37.364Z,18.69
2022-08-07T00:32:41.524Z,18.73
2022-08-07T00:33:47.447Z,18.70
2022-08-07T00:34:50.906Z,18.62
2022-08-07T00:35:54.198Z,18.72
2022-08-07T00:36:57.438Z,18.73
2022-08-07T00:38:05.140Z,18.80
2022-08-07T00:39:08.629Z,18.83
2022-08-07T00:40:37.004Z,18.86
2022-08-07T00:42:02.096Z,18.94
2022-08-07T00:43:58.939Z,19.03
2022-08-07T00:44:35.112Z,19.11
2022-08-07T00:45:42.389Z,19.12
2022-08-07T00:46:50.369Z,19.20
2022-08-07T00:48:07.993Z,19.22
2022-08-07T00:49:24.814Z,19.24
2022-08-07T00:50:46.608Z,19.23
2022-08-07T00:51:58.465Z,19.28
2022-08-07T00:53:01.795Z,19.24
2022-08-07T00:54:04.795Z,19.21
2022-08-07T00:55:10.677Z,19.24
2022-08-07T00:56:16.097Z,19.35
2022-08-07T00:57:18.901Z,19.37
2022-08-07T00:58:21.869Z,19.38
2022-08-07T00:59:35.282Z,19.40
2022-08-07T01:00:38.964Z,19.40
2022-08-07T01:01:57.986Z,19.39
2022-08-07T01:03:01.077Z,19.53
2022-08-07T01:04:08.303Z,19.49
2022-08-07T01:05:18.844Z,19.52
2022-08-07T01:06:22.561Z,19.52
2022-08-07T01:07:25.522Z,19.51
2022-08-07T01:08:31.837Z,19.56
2022-08-07T01:10:06.253Z,19.53
2022-08-07T01:12:24.053Z,19.53
2022-08-07T01:12:28.639Z,19.59
2022-08-07T01:13:35.199Z,19.55
2022-08-07T01:14:38.434Z,19.59
2022-08-07T01:16:04.885Z,19.50
2022-08-07T01:17:10.288Z,19.36
2022-08-07T01:18:16.771Z,19.53
2022-08-07T01:19:22.084Z,19.34
2022-08-07T01:20:33.234Z,19.43
2022-08-07T01:21:36.909Z,19.38
2022-08-07T01:22:46.823Z,19.27
2022-08-07T01:24:04.869Z,19.39
2022-08-07T01:25:53.589Z,19.50
2022-08-07T01:26:35.367Z,19.45
2022-08-07T01:27:51.205Z,19.39
2022-08-07T01:28:55.584Z,19.41
2022-08-07T01:30:02.140Z,19.43
2022-08-07T01:31:05.485Z,19.47
2022-08-07T01:32:12.513Z,19.50
2022-08-07T01:33:17.386Z,19.63
2022-08-07T01:34:30.063Z,19.64
2022-08-07T01:35:36.970Z,19.62
2022-08-07T01:36:57.920Z,19.69
2022-08-07T01:38:01.757Z,19.65
2022-08-07T01:39:09.788Z,19.74
2022-08-07T01:40:16.771Z,19.72
2022-08-07T01:41:26.256Z,19.71
2022-08-07T01:42:40.058Z,19.74
2022-08-07T01:43:53.301Z,19.83
2022-08-07T01:44:56.576Z,19.78
2022-08-07T01:46:02.088Z,19.81
2022-08-07T01:48:16.925Z,19.76
2022-08-07T01:48:30.161Z,19.72
2022-08-07T01:49:33.539Z,19.71
2022-08-07T01:50:43.174Z,19.70
2022-08-07T01:52:03.893Z,19.65
2022-08-07T01:53:10.081Z,19.57
2022-08-07T01:54:32.915Z,19.40
2022-08-07T01:55:47.756Z,19.43
2022-08-07T01:57:02.272Z,19.43
2022-08-07T01:58:28.849Z,19.36
2022-08-07T01:59:52.444Z,19.41
2022-08-07T02:01:25.380Z,19.34
2022-08-07T02:03:12.399Z,19.38
2022-08-07T02:04:12.467Z,19.48
2022-08-07T02:05:48.121Z,19.42
2022-08-07T02:06:47.714Z,19.42
2022-08-07T02:07:52.672Z,19.40
2022-08-07T02:09:00.269Z,19.44
2022-08-07T02:10:05.640Z,19.53
2022-08-07T02:11:10.950Z,19.67
2022-08-07T02:12:37.378Z,19.68
2022-08-07T02:14:00.671Z,19.68
2022-08-07T02:15:07.415Z,19.78
2022-08-07T02:16:12.071Z,19.78
2022-08-07T02:17:16.575Z,19.86
2022-08-07T02:18:35.364Z,19.83
2022-08-07T02:20:06.918Z,19.81
2022-08-07T02:21:08.784Z,19.77
2022-08-07T02:22:20.951Z,19.78
2022-08-07T02:23:35.791Z,19.80
2022-08-07T02:24:44.480Z,19.87
2022-08-07T02:26:32.059Z,19.87
2022-08-07T02:27:14.582Z,19.87
2022-08-07T02:28:25.331Z,19.98
2022-08-07T02:29:31.273Z,19.85
2022-08-07T02:30:35.747Z,19.80
2022-08-07T02:31:39.887Z,19.81
2022-08-07T02:33:03.952Z,19.66
2022-08-07T02:34:11.692Z,19.43
2022-08-07T02:35:20.936Z,19.48
2022-08-07T02:36:45.146Z,19.60
2022-08-07T02:37:49.957Z,19.65
2022-08-07T02:38:57.132Z,19.66
2022-08-07T02:40:31.174Z,19.69
2022-08-07T02:41:37.221Z,19.63
2022-08-07T02:43:50.492Z,19.61
2022-08-07T02:44:58.364Z,19.66
2022-08-07T02:46:04.756Z,19.56
2022-08-07T02:47:08.548Z,19.48
2022-08-07T02:48:23.377Z,19.40
2022-08-07T02:49:29.210Z,19.49
2022-08-07T02:50:53.236Z,19.50
2022-08-07T02:51:59.301Z,19.48
2022-08-07T02:53:07.358Z,19.52
2022-08-07T02:55:28.524Z,19.51
2022-08-07T02:56:51.393Z,19.45
2022-08-07T02:57:59.757Z,19.34
2022-08-07T02:59:06.348Z,19.28
2022-08-07T03:00:11.173Z,19.31
2022-08-07T03:01:18.787Z,19.28
2022-08-07T03:02:22.985Z,19.25
2022-08-07T03:03:49.297Z,19.24
2022-08-07T03:04:55.374Z,19.31
2022-08-07T03:05:59.578Z,19.24
2022-08-07T03:07:03.445Z,19.25
2022-08-07T03:08:14.366Z,19.15
2022-08-07T03:09:42.307Z,19.13
2022-08-07T03:10:50.154Z,19.10
2022-08-07T03:11:57.897Z,19.05
2022-08-07T03:13:07.194Z,19.06
2022-08-07T03:14:12.377Z,19.12
2022-08-07T03:15:15.428Z,19.07
2022-08-07T03:16:38.943Z,18.99
2022-08-07T03:17:52.820Z,18.93
2022-08-07T03:18:58.308Z,19.04
2022-08-07T03:20:01.893Z,19.15
2022-08-07T03:21:08.851Z,19.03
2022-08-07T03:22:18.954Z,19.02
2022-08-07T03:23:22.184Z,19.11
2022-08-07T03:24:37.263Z,19.11
2022-08-07T03:25:42.802Z,19.10
2022-08-07T03:26:57.906Z,19.06
2022-08-07T03:28:09.784Z,19.10
2022-08-07T03:29:29.730Z,19.04
2022-08-07T03:30:33.751Z,19.14
2022-08-07T03:31:42.355Z,19.18
2022-08-07T03:32:58.605Z,19.26
2022-08-07T03:34:03.344Z,19.29
2022-08-07T03:35:18.136Z,19.12
2022-08-07T03:36:25.806Z,19.05
2022-08-07T03:37:45.898Z,19.04
2022-08-07T03:38:54.080Z,19.01
2022-08-07T03:40:13.196Z,19.12
2022-08-07T03:41:18.780Z,19.25
2022-08-07T03:42:42.460Z,19.17
2022-08-07T03:43:56.997Z,19.12
2022-08-07T03:45:01.364Z,19.10
2022-08-07T03:46:10.320Z,19.15
2022-08-07T03:47:14.684Z,19.15
2022-08-07T03:48:17.695Z,19.16
2022-08-07T03:49:21.048Z,19.19
2022-08-07T03:50:25.575Z,19.24
2022-08-07T03:51:47.437Z,19.21
2022-08-07T03:53:01.290Z,19.09
2022-08-07T03:54:33.262Z,19.05
2022-08-07T03:55:53.130Z,19.01
2022-08-07T03:57:03.523Z,19.13
2022-08-07T03:58:34.395Z,19.26
2022-08-07T03:59:32.595Z,19.33
2022-08-07T04:00:38.690Z,19.29
2022-08-07T04:01:50.135Z,19.28
2022-08-07T04:02:56.714Z,19.23
2022-08-07T04:04:04.954Z,19.26
2022-08-07T04:05:09.114Z,19.34
2022-08-07T04:06:37.722Z,19.32
2022-08-07T04:07:42.650Z,19.24
2022-08-07T04:08:48.322Z,19.43
2022-08-07T04:09:52.124Z,19.45
2022-08-07T04:12:21.486Z,19.44
2022-08-07T04:12:27.030Z,19.39
2022-08-07T04:14:10.900Z,19.32
2022-08-07T04:14:56.971Z,19.28
2022-08-07T04:15:59.643Z,19.35
2022-08-07T04:17:03.252Z,19.37
2022-08-07T04:18:57.571Z,19.35
2022-08-07T04:19:51.140Z,19.34
2022-08-07T04:20:55.216Z,19.26
2022-08-07T04:22:04.851Z,19.37
2022-08-07T04:23:19.287Z,19.37
2022-08-07T04:24:30.736Z,19.26
2022-08-07T04:25:42.133Z,19.29
2022-08-07T04:26:45.313Z,19.13
2022-08-07T04:27:59.192Z,19.06
2022-08-07T04:29:03.916Z,19.01
2022-08-07T04:30:11.699Z,18.95
2022-08-07T04:31:20.235Z,18.92
2022-08-07T04:32:44.852Z,18.88
2022-08-07T04:33:55.043Z,18.93
2022-08-07T04:35:00.204Z,18.96
2022-08-07T04:36:06.639Z,18.77
2022-08-07T04:38:17.929Z,18.60
2022-08-07T04:39:25.764Z,18.48
2022-08-07T04:40:30.178Z,18.46
2022-08-07T04:41:36.803Z,18.41
2022-08-07T04:42:39.908Z,18.41
2022-08-07T04:44:13.036Z,18.64
2022-08-07T04:45:11.904Z,18.63
2022-08-07T04:47:08.542Z,18.46
2022-08-07T04:48:21.511Z,18.48
2022-08-07T04:49:26.188Z,18.34
2022-08-07T04:50:39.607Z,18.36
2022-08-07T04:51:54.655Z,18.52
2022-08-07T04:53:07.515Z,18.65
2022-08-07T04:54:31.880Z,18.81
2022-08-07T04:58:16.378Z,18.46
2022-08-07T04:58:16.616Z,18.58
2022-08-07T05:00:07.996Z,18.43
2022-08-07T05:00:54.084Z,18.50
2022-08-07T05:02:46.340Z,18.45
2022-08-07T05:04:17.843Z,18.45
2022-08-07T05:05:52.969Z,18.53
2022-08-07T05:06:51.250Z,18.67
2022-08-07T05:08:01.459Z,18.68
2022-08-07T05:09:42.994Z,18.72
2022-08-07T05:10:58.612Z,18.92
2022-08-07T05:12:10.527Z,18.92
2022-08-07T05:14:53.475Z,18.97
2022-08-07T05:15:03.188Z,18.91
2022-08-07T05:16:10.766Z,19.17
2022-08-07T05:17:17.470Z,19.32
2022-08-07T05:19:02.330Z,19.19
2022-08-07T05:20:09.646Z,19.06
2022-08-07T05:21:14.918Z,19.15
2022-08-07T05:22:27.686Z,19.28
2022-08-07T05:23:36.672Z,19.48
2022-08-07T05:24:40.988Z,19.56
2022-08-07T05:26:10.529Z,19.44
2022-08-07T05:27:18.457Z,19.38
2022-08-07T05:28:40.557Z,19.50
2022-08-07T05:29:51.024Z,19.50
2022-08-07T05:30:55.904Z,19.55
2022-08-07T05:32:01.365Z,19.62
2022-08-07T05:33:07.863Z,19.62
2022-08-07T05:34:15.664Z,19.77
2022-08-07T05:35:23.789Z,19.66
2022-08-07T05:36:39.323Z,19.66
2022-08-07T05:37:42.931Z,19.59
2022-08-07T05:39:00.371Z,19.65
2022-08-07T05:40:17.556Z,19.81
2022-08-07T05:41:22.621Z,19.82
2022-08-07T05:42:33.835Z,19.82
2022-08-07T05:43:49.681Z,19.98
2022-08-07T05:45:14.445Z,19.99
2022-08-07T05:46:30.149Z,20.14
2022-08-07T05:47:38.449Z,20.07
2022-08-07T05:48:59.490Z,19.97
2022-08-07T05:50:03.346Z,20.07
2022-08-07T05:51:07.360Z,20.15
2022-08-07T05:52:12.046Z,20.29
2022-08-07T05:54:12.566Z,20.06
2022-08-07T05:54:53.224Z,20.09
2022-08-07T05:56:06.067Z,20.04
2022-08-07T05:57:10.087Z,20.12
2022-08-07T05:58:14.950Z,20.14
2022-08-07T05:59:21.305Z,19.97
2022-08-07T06:00:26.511Z,19.93
2022-08-07T06:01:35.777Z,19.95
2022-08-07T06:02:40.392Z,20.08
2022-08-07T06:03:56.714Z,19.97
2022-08-07T06:05:15.759Z,19.86
2022-08-07T06:06:19.718Z,19.84
2022-08-07T06:08:13.137Z,19.87
2022-08-07T06:08:47.988Z,19.94
2022-08-07T06:10:05.395Z,20.02
2022-08-07T06:11:09.425Z,19.93
2022-08-07T06:12:15.374Z,19.86
2022-08-07T06:13:18.523Z,20.09
2022-08-07T06:14:28.810Z,20.12
2022-08-07T06:15:42.014Z,20.12
2022-08-07T06:16:50.555Z,20.08
2022-08-07T06:17:59.968Z,19.93
2022-08-07T06:19:09.237Z,20.01
2022-08-07T06:20:25.555Z,20.14
2022-08-07T06:22:11.805Z,20.28
2022-08-07T06:23:25.105Z,20.21
2022-08-07T06:24:52.778Z,20.33
2022-08-07T06:25:57.053Z,20.15
2022-08-07T06:27:00.090Z,20.40
2022-08-07T06:28:09.929Z,20.45
2022-08-07T06:29:17.100Z,20.15
2022-08-07T06:30:32.248Z,20.09
2022-08-07T06:31:49.589Z,20.19
2022-08-07T06:32:53.317Z,20.30
2022-08-07T06:33:56.053Z,20.48
2022-08-07T06:35:10.422Z,20.46
2022-08-07T06:36:35.378Z,20.40
2022-08-07T06:37:43.421Z,20.26
2022-08-07T06:38:59.433Z,20.14
2022-08-07T06:40:16.977Z,20.24
2022-08-07T06:42:02.015Z,20.36
2022-08-07T06:43:00.245Z,20.43
2022-08-07T06:44:10.929Z,20.41
2022-08-07T06:45:21.060Z,20.59
2022-08-07T06:46:31.335Z,20.62
2022-08-07T06:47:38.655Z,20.49
2022-08-07T06:48:51.614Z,20.60
2022-08-07T06:49:58.220Z,20.24
2022-08-07T06:51:08.335Z,20.18
2022-08-07T06:52:14.684Z,20.29
2022-08-07T06:55:27.099Z,20.38
2022-08-07T06:55:31.199Z,20.47
2022-08-07T06:56:15.428Z,20.60
2022-08-07T06:57:20.988Z,20.57
2022-08-07T07:00:12.602Z,20.43
2022-08-07T07:00:17.625Z,20.39
2022-08-07T07:01:22.308Z,20.46
2022-08-07T07:02:54.444Z,20.49
2022-08-07T07:03:57.192Z,20.50
2022-08-07T07:05:09.401Z,20.78
2022-08-07T07:06:26.119Z,20.77
2022-08-07T07:07:59.520Z,20.83
2022-08-07T07:08:52.382Z,20.98
2022-08-07T07:09:54.944Z,20.87
2022-08-07T07:10:57.939Z,20.83
2022-08-07T07:12:16.669Z,20.78
2022-08-07T07:13:43.537Z,20.99
2022-08-07T07:15:23.870Z,21.07
2022-08-07T07:16:38.940Z,20.94
2022-08-07T07:18:05.662Z,20.76
2022-08-07T07:19:56.341Z,21.09
2022-08-07T07:20:46.016Z,20.98
2022-08-07T07:22:05.039Z,21.21
2022-08-07T07:24:11.126Z,20.91
2022-08-07T07:24:42.936Z,21.03
2022-08-07T07:26:35.031Z,20.98
2022-08-07T07:27:35.696Z,20.85
2022-08-07T07:29:38.674Z,20.75
2022-08-07T07:30:37.841Z,20.99
2022-08-07T07:31:46.595Z,21.00
2022-08-07T07:32:52.314Z,20.71
2022-08-07T07:34:02.322Z,20.76
2022-08-07T07:35:08.822Z,20.80
2022-08-07T07:36:12.851Z,20.63
2022-08-07T07:37:49.558Z,20.83
2022-08-07T07:38:47.658Z,20.97
2022-08-07T07:39:55.357Z,21.13
2022-08-07T07:41:02.862Z,21.15
2022-08-07T07:42:13.369Z,21.48
2022-08-07T07:43:27.538Z,21.49
2022-08-07T07:44:45.032Z,21.52
2022-08-07T07:46:37.328Z,21.56
2022-08-07T07:47:23.097Z,21.73
2022-08-07T07:48:36.021Z,21.86
2022-08-07T07:50:32.841Z,21.83
2022-08-07T07:51:08.039Z,21.98
2022-08-07T07:52:13.124Z,21.97
2022-08-07T07:53:23.061Z,21.86
2022-08-07T07:54:29.859Z,22.00
2022-08-07T07:55:37.212Z,22.16
2022-08-07T07:56:43.712Z,22.28
2022-08-07T07:57:53.991Z,22.37
2022-08-07T07:59:03.454Z,22.19
2022-08-07T08:00:09.583Z,22.31
2022-08-07T08:02:02.513Z,22.23
2022-08-07T08:03:04.916Z,22.38
2022-08-07T08:04:11.638Z,22.64
2022-08-07T08:05:18.221Z,22.85
2022-08-07T08:06:26.648Z,22.42
2022-08-07T08:07:35.788Z,22.46
2022-08-07T08:08:48.290Z,22.30
2022-08-07T08:10:04.624Z,22.15
2022-08-07T08:11:16.548Z,22.27
2022-08-07T08:12:52.340Z,22.26
2022-08-07T08:13:57.836Z,22.44
2022-08-07T08:15:07.021Z,22.23
2022-08-07T08:16:25.322Z,21.87
2022-08-07T08:17:57.607Z,21.84
2022-08-07T08:18:58.233Z,21.95
2022-08-07T08:20:18.223Z,22.16
2022-08-07T08:21:55.356Z,22.38
2022-08-07T08:23:28.013Z,22.56
2022-08-07T08:25:04.456Z,22.66
2022-08-07T08:26:38.855Z,22.54
2022-08-07T08:27:56.744Z,22.45
2022-08-07T08:29:06.404Z,22.25
2022-08-07T08:30:17.322Z,22.26
2022-08-07T08:31:58.381Z,22.03
2022-08-07T08:32:56.290Z,22.22
2022-08-07T08:34:01.702Z,22.46
2022-08-07T08:35:09.856Z,22.59
2022-08-07T08:36:13.645Z,22.46
2022-08-07T08:37:59.534Z,22.23
2022-08-07T08:38:50.179Z,22.46
2022-08-07T08:39:58.718Z,22.60
2022-08-07T08:41:12.912Z,22.39
2022-08-07T08:42:41.255Z,22.52
2022-08-07T08:43:59.953Z,22.48
2022-08-07T08:45:59.178Z,22.71
2022-08-07T08:47:17.356Z,23.08
2022-08-07T08:48:36.195Z,23.13
2022-08-07T08:50:04.596Z,22.95
2022-08-07T08:52:01.010Z,22.84
2022-08-07T08:53:03.056Z,22.91
2022-08-07T08:54:20.324Z,23.07
2022-08-07T08:55:54.503Z,23.27
2022-08-07T08:56:54.826Z,23.32
2022-08-07T08:58:13.070Z,23.37
2022-08-07T08:59:50.990Z,23.35
2022-08-07T09:01:15.089Z,23.62
2022-08-07T09:02:39.478Z,23.81
2022-08-07T09:03:56.732Z,24.34
2022-08-07T09:05:36.612Z,24.48
2022-08-07T09:06:55.959Z,23.85
2022-08-07T09:07:59.628Z,24.17
2022-08-07T09:09:29.925Z,24.12
2022-08-07T09:11:00.679Z,23.81
2022-08-07T09:12:32.286Z,23.95
2022-08-07T09:13:42.149Z,24.22
2022-08-07T09:16:23.468Z,24.53
2022-08-07T09:16:48.849Z,24.79
2022-08-07T09:18:16.844Z,24.88
2022-08-07T09:20:35.653Z,24.87
2022-08-07T09:22:10.072Z,24.58
2022-08-07T09:24:32.504Z,24.56
2022-08-07T09:25:27.425Z,24.69
2022-08-07T09:26:47.684Z,24.93
2022-08-07T09:30:01.206Z,24.93
2022-08-07T09:30:06.697Z,25.18
2022-08-07T09:31:40.499Z,25.53
2022-08-07T09:33:05.480Z,25.91
2022-08-07T09:34:27.282Z,26.38
2022-08-07T09:36:03.370Z,26.46
2022-08-07T09:37:14.983Z,26.38
2022-08-07T09:38:50.298Z,25.93
2022-08-07T09:40:09.189Z,26.05
2022-08-07T09:41:24.464Z,26.28
2022-08-07T09:42:33.634Z,26.16
2022-08-07T09:44:07.020Z,26.31
2022-08-07T09:47:25.583Z,26.05
2022-08-07T09:47:49.519Z,25.84
2022-08-07T09:50:02.931Z,26.30
2022-08-07T09:50:39.982Z,26.64
2022-08-07T09:52:10.051Z,26.43
2022-08-07T09:53:22.610Z,26.79
2022-08-07T09:54:47.685Z,26.95
2022-08-07T09:56:11.238Z,26.87
2022-08-07T09:57:47.000Z,26.52
2022-08-07T10:00:00.657Z,25.87
2022-08-07T10:01:50.601Z,25.95
2022-08-07T10:04:03.294Z,25.89
2022-08-07T10:04:58.315Z,25.54
2022-08-07T10:06:26.169Z,25.40
2022-08-07T10:07:53.398Z,25.41
2022-08-07T10:09:59.245Z,25.73
2022-08-07T10:12:03.155Z,25.72
2022-08-07T10:13:29.771Z,25.83
2022-08-07T10:15:01.414Z,26.11
2022-08-07T10:16:30.904Z,26.04
2022-08-07T10:18:02.873Z,26.00
2022-08-07T10:19:27.409Z,26.73
2022-08-07T10:20:38.699Z,26.89
2022-08-07T10:22:15.965Z,27.23
2022-08-07T10:24:05.047Z,26.62
2022-08-07T10:25:01.174Z,26.43
2022-08-07T10:26:31.007Z,26.81
2022-08-07T10:28:12.852Z,27.27
2022-08-07T10:29:34.873Z,27.44
2022-08-07T10:30:54.265Z,27.25
2022-08-07T10:32:37.018Z,27.41
2022-08-07T10:34:07.000Z,27.63
2022-08-07T10:35:16.589Z,27.44
2022-08-07T10:37:03.828Z,27.96
2022-08-07T10:38:36.214Z,28.06
2022-08-07T10:40:06.164Z,27.84
2022-08-07T10:41:47.473Z,27.27
2022-08-07T10:43:12.862Z,27.19
2022-08-07T10:44:45.146Z,26.85
2022-08-07T10:45:57.374Z,27.07
2022-08-07T10:47:26.823Z,27.24
2022-08-07T10:49:15.004Z,26.99
2022-08-07T10:50:34.476Z,27.07
2022-08-07T10:52:13.764Z,27.78
2022-08-07T10:53:44.048Z,28.25
2022-08-07T10:55:01.891Z,28.42
2022-08-07T10:56:48.244Z,28.48
2022-08-07T10:58:18.452Z,28.52
2022-08-07T10:59:53.333Z,28.92
2022-08-07T11:01:15.101Z,29.05
2022-08-07T11:02:34.246Z,29.19
2022-08-07T11:04:16.764Z,28.83
2022-08-07T11:05:49.179Z,28.67
2022-08-07T11:07:58.697Z,27.95
2022-08-07T11:08:58.018Z,28.18
2022-08-07T11:10:08.623Z,27.97
2022-08-07T11:11:42.752Z,28.01
2022-08-07T11:13:01.763Z,28.03
2022-08-07T11:14:45.309Z,27.82
2022-08-07T11:16:10.190Z,27.94
2022-08-07T11:17:46.305Z,28.17
2022-08-07T11:19:06.905Z,28.26
2022-08-07T11:20:24.592Z,28.13
2022-08-07T11:21:53.865Z,27.87
2022-08-07T11:23:36.443Z,28.27
2022-08-07T11:24:47.036Z,27.99
2022-08-07T11:26:22.049Z,28.12
2022-08-07T11:28:00.993Z,28.52
2022-08-07T11:29:43.048Z,28.13
2022-08-07T11:30:43.944Z,28.03
2022-08-07T11:32:11.091Z,28.31
2022-08-07T11:33:53.993Z,28.82
2022-08-07T11:34:51.299Z,29.00
2022-08-07T11:36:13.644Z,29.52
2022-08-07T11:37:16.292Z,29.57
2022-08-07T11:38:37.622Z,29.53
2022-08-07T11:40:11.473Z,28.96
2022-08-07T11:42:02.143Z,29.61
2022-08-07T11:43:01.803Z,29.23
2022-08-07T11:44:23.964Z,29.16
2022-08-07T11:46:11.759Z,29.02
2022-08-07T11:47:39.107Z,28.93
2022-08-07T11:50:18.533Z,29.07
2022-08-07T11:51:41.699Z,29.51
2022-08-07T11:53:15.660Z,30.02
2022-08-07T11:54:25.468Z,29.90
2022-08-07T11:56:25.585Z,29.85
2022-08-07T11:57:59.478Z,29.67
2022-08-07T12:00:10.172Z,29.35
2022-08-07T12:01:10.019Z,29.99
2022-08-07T12:02:52.181Z,29.93
2022-08-07T12:04:01.598Z,30.19
2022-08-07T12:05:15.306Z,30.12
2022-08-07T12:06:37.033Z,29.85
2022-08-07T12:08:03.838Z,29.59
2022-08-07T12:09:24.418Z,29.01
2022-08-07T12:10:41.608Z,28.68
2022-08-07T12:12:10.058Z,29.25
2022-08-07T12:13:47.805Z,29.59
2022-08-07T12:15:08.093Z,29.16
2022-08-07T12:16:34.145Z,29.39
2022-08-07T12:17:58.623Z,29.77
2022-08-07T12:20:03.254Z,30.04
2022-08-07T12:21:55.442Z,30.17
2022-08-07T12:24:04.951Z,29.57
2022-08-07T12:26:03.183Z,30.46
2022-08-07T12:26:59.079Z,30.09
2022-08-07T12:28:15.195Z,28.78
2022-08-07T12:29:37.954Z,29.74
2022-08-07T12:30:46.951Z,29.33
2022-08-07T12:32:18.643Z,29.24
2022-08-07T12:33:28.543Z,28.45
2022-08-07T12:34:55.779Z,29.19
2022-08-07T12:36:02.392Z,29.87
2022-08-07T12:37:08.272Z,30.18
2022-08-07T12:38:36.802Z,30.48
2022-08-07T12:39:51.361Z,29.57
2022-08-07T12:40:56.159Z,29.07
2022-08-07T12:42:02.467Z,28.96
2022-08-07T12:43:09.838Z,28.62
2022-08-07T12:44:17.167Z,28.84
2022-08-07T12:45:26.351Z,28.60
2022-08-07T12:46:35.890Z,28.43
2022-08-07T12:47:57.782Z,28.57
2022-08-07T12:49:25.804Z,28.79
2022-08-07T12:51:24.265Z,28.65
2022-08-07T12:54:02.652Z,28.50
2022-08-07T12:55:21.713Z,28.47
2022-08-07T12:56:51.374Z,28.13
2022-08-07T12:58:02.179Z,28.01
2022-08-07T12:59:08.650Z,27.92
2022-08-07T13:00:53.076Z,28.02
2022-08-07T13:02:09.935Z,27.98
2022-08-07T13:03:56.264Z,28.09
2022-08-07T13:06:01.848Z,28.10
2022-08-07T13:08:12.730Z,28.20
2022-08-07T13:08:56.708Z,28.20
2022-08-07T13:10:29.341Z,28.11
2022-08-07T13:12:03.355Z,28.43
2022-08-07T13:13:47.883Z,28.25
2022-08-07T13:15:23.740Z,28.42
2022-08-07T13:16:55.756Z,28.47
2022-08-07T13:18:35.969Z,28.59
2022-08-07T13:19:51.641Z,29.00
2022-08-07T13:21:51.039Z,29.14
2022-08-07T13:24:01.021Z,28.67
2022-08-07T13:25:24.136Z,28.25
2022-08-07T13:26:46.120Z,28.21
2022-08-07T13:28:10.707Z,28.60
2022-08-07T13:29:23.574Z,28.58
2022-08-07T13:30:43.480Z,28.77
2022-08-07T13:31:57.716Z,28.92
2022-08-07T13:34:14.503Z,29.07
2022-08-07T13:34:57.742Z,29.17
2022-08-07T13:36:09.870Z,29.51
2022-08-07T13:37:42.201Z,28.96
2022-08-07T13:38:56.719Z,29.46
2022-08-07T13:40:35.760Z,29.46
2022-08-07T13:41:54.882Z,29.55
2022-08-07T13:43:05.565Z,29.15
2022-08-07T13:44:26.017Z,29.38
2022-08-07T13:46:11.712Z,29.74
2022-08-07T13:46:59.641Z,30.02
2022-08-07T13:48:08.821Z,30.23
2022-08-07T13:50:34.310Z,30.15
2022-08-07T13:50:45.004Z,30.30
2022-08-07T13:52:31.572Z,30.37
2022-08-07T13:53:59.481Z,30.48
2022-08-07T13:55:07.574Z,30.30
2022-08-07T13:56:19.426Z,30.73
2022-08-07T13:57:59.054Z,30.48
2022-08-07T13:59:30.506Z,30.67
2022-08-07T14:00:54.285Z,29.96
2022-08-07T14:02:15.281Z,29.38
2022-08-07T14:03:30.108Z,28.99
2022-08-07T14:04:58.352Z,28.82
2022-08-07T14:06:02.063Z,28.78
2022-08-07T14:07:10.231Z,28.45
2022-08-07T14:08:15.604Z,28.50
2022-08-07T14:10:12.363Z,28.68
2022-08-07T14:11:01.993Z,28.78
2022-08-07T14:12:30.358Z,29.05
2022-08-07T14:13:35.521Z,28.89
2022-08-07T14:14:51.612Z,29.29
2022-08-07T14:16:02.176Z,29.39
2022-08-07T14:17:51.374Z,29.34
2022-08-07T14:18:39.100Z,28.83
2022-08-07T14:20:43.429Z,28.85
2022-08-07T14:22:01.287Z,29.00
2022-08-07T14:23:02.041Z,29.45
2022-08-07T14:24:14.414Z,29.09
2022-08-07T14:25:18.006Z,29.01
2022-08-07T14:26:30.470Z,28.89
2022-08-07T14:28:19.941Z,28.64
2022-08-07T14:29:10.391Z,28.50
2022-08-07T14:30:33.164Z,28.21
2022-08-07T14:31:42.741Z,28.12
2022-08-07T14:32:58.785Z,28.10
2022-08-07T14:34:03.170Z,28.10
2022-08-07T14:35:16.502Z,28.49
2022-08-07T14:36:41.044Z,28.40
2022-08-07T14:38:05.583Z,28.49
2022-08-07T14:39:12.515Z,28.62
2022-08-07T14:40:35.372Z,28.77
2022-08-07T14:42:20.915Z,28.60
2022-08-07T14:43:58.029Z,28.66
2022-08-07T14:44:30.910Z,28.54
2022-08-07T14:45:49.359Z,28.49
2022-08-07T14:47:14.431Z,28.75
2022-08-07T14:48:27.644Z,28.90
2022-08-07T14:49:57.168Z,28.83
2022-08-07T14:51:03.516Z,29.12
2022-08-07T14:52:10.301Z,29.44
2022-08-07T14:53:14.240Z,29.07
2022-08-07T14:54:30.982Z,28.44
2022-08-07T14:55:55.353Z,28.41
2022-08-07T14:57:03.244Z,28.26
2022-08-07T14:58:07.821Z,28.60
2022-08-07T15:00:56.263Z,28.44
2022-08-07T15:02:32.981Z,28.70
2022-08-07T15:03:51.331Z,28.53
2022-08-07T15:04:57.016Z,28.81
2022-08-07T15:06:04.684Z,29.02
2022-08-07T15:07:17.629Z,29.22
2022-08-07T15:08:32.726Z,29.19
2022-08-07T15:09:59.832Z,29.15
2022-08-07T15:11:08.822Z,28.98
2022-08-07T15:12:30.485Z,28.95
2022-08-07T15:13:50.543Z,29.23
2022-08-07T15:15:21.064Z,29.21
2022-08-07T15:16:41.901Z,29.17
2022-08-07T15:20:30.958Z,29.02
2022-08-07T15:21:08.009Z,29.07
2022-08-07T15:22:23.246Z,28.85
2022-08-07T15:25:15.571Z,29.24
2022-08-07T15:26:41.343Z,28.90
2022-08-07T15:28:32.168Z,29.38
2022-08-07T15:31:05.005Z,29.34
2022-08-07T15:32:05.007Z,29.48
2022-08-07T15:33:19.387Z,29.67
2022-08-07T15:34:26.095Z,29.12
2022-08-07T15:37:03.151Z,29.45
2022-08-07T15:38:29.799Z,29.27
2022-08-07T15:39:56.611Z,29.29
2022-08-07T15:42:44.206Z,29.70
2022-08-07T15:44:08.496Z,29.34
2022-08-07T15:45:19.391Z,29.32
2022-08-07T15:48:01.931Z,28.73
2022-08-07T15:49:12.446Z,28.72
2022-08-07T15:50:37.889Z,29.32
2022-08-07T15:53:07.677Z,29.21
2022-08-07T15:54:13.388Z,29.38
2022-08-07T15:55:20.398Z,29.49
2022-08-07T15:56:38.477Z,29.42
2022-08-07T15:57:51.414Z,29.33
2022-08-07T15:58:59.399Z,28.44
2022-08-07T16:00:06.323Z,28.73
2022-08-07T16:01:20.480Z,29.02
2022-08-07T16:02:28.492Z,28.88
2022-08-07T16:03:46.402Z,28.64
2022-08-07T16:04:57.958Z,28.48
2022-08-07T16:06:01.668Z,28.68
2022-08-07T16:08:32.925Z,28.40
2022-08-07T16:08:41.412Z,28.29
2022-08-07T16:09:54.540Z,28.49
2022-08-07T16:11:26.546Z,28.18
2022-08-07T16:13:01.115Z,28.10
2022-08-07T16:14:17.131Z,28.59
2022-08-07T16:15:57.524Z,28.52
2022-08-07T16:18:02.062Z,28.22
2022-08-07T16:19:42.838Z,28.38
2022-08-07T16:21:44.076Z,28.29
2022-08-07T16:22:31.961Z,28.52
2022-08-07T16:23:54.473Z,28.53
2022-08-07T16:25:22.777Z,28.56
2022-08-07T16:26:30.823Z,28.57
2022-08-07T16:27:41.888Z,28.51
2022-08-07T16:30:06.016Z,28.04
2022-08-07T16:30:50.142Z,28.25
2022-08-07T16:32:01.466Z,27.93
2022-08-07T16:34:03.254Z,27.68
2022-08-07T16:34:45.289Z,27.70
2022-08-07T16:36:03.504Z,28.01
2022-08-07T16:38:06.805Z,27.89
2022-08-07T16:39:40.625Z,28.06
2022-08-07T16:41:17.302Z,27.86
2022-08-07T16:42:31.829Z,27.87
2022-08-07T16:44:40.489Z,27.73
2022-08-07T16:46:47.405Z,27.54
2022-08-07T16:48:09.032Z,27.41
2022-08-07T16:50:29.367Z,27.50
2022-08-07T16:51:54.150Z,27.64
2022-08-07T16:52:55.460Z,27.86
2022-08-07T16:54:19.242Z,27.79
2022-08-07T16:55:51.290Z,27.43
2022-08-07T16:56:54.545Z,27.53
2022-08-07T16:59:02.426Z,27.78
2022-08-07T17:00:10.956Z,27.88
2022-08-07T17:01:48.543Z,27.64
2022-08-07T17:04:00.057Z,27.42
2022-08-07T17:05:15.218Z,27.45
2022-08-07T17:07:03.279Z,27.45
2022-08-07T17:08:09.173Z,27.37